sensor_id;sensor_type;location;lat;lon;timestamp;P1;durP1;ratioP1;P2;durP2;ratioP2
10920;SDS011;5513;50.580;8.818;2023-05-29T00:00:09;3.70;;;2.90;;
10920;SDS011;5513;50.580;8.818;2023-05-29T00:02:39;4.97;;;3.07;;
10920;SDS011;5513;50.580;8.818;2023-05-29T00:05:11;7.10;;;3.22;;
10920;SDS011;5513;50.580;8.818;2023-05-29T00:07:39;4.10;;;2.77;;
10920;SDS011;5513;50.580;8.818;2023-05-29T00:10:09;5.53;;;3.03;;
10920;SDS011;5513;50.580;8.818;2023-05-29T00:12:39;3.43;;;2.57;;
10920;SDS011;5513;50.580;8.818;2023-05-29T00:15:10;5.03;;;2.67;;
10920;SDS011;5513;50.580;8.818;2023-05-29T00:17:39;5.87;;;3.13;;
10920;SDS011;5513;50.580;8.818;2023-05-29T00:20:11;5.80;;;3.13;;
10920;SDS011;5513;50.580;8.818;2023-05-29T00:22:40;5.30;;;2.97;;
10920;SDS011;5513;50.580;8.818;2023-05-29T00:25:08;5.83;;;2.90;;
10920;SDS011;5513;50.580;8.818;2023-05-29T00:27:36;5.47;;;2.90;;
10920;SDS011;5513;50.580;8.818;2023-05-29T00:30:05;6.23;;;2.93;;
10920;SDS011;5513;50.580;8.818;2023-05-29T00:32:36;8.40;;;3.00;;
10920;SDS011;5513;50.580;8.818;2023-05-29T00:35:05;4.77;;;3.10;;
10920;SDS011;5513;50.580;8.818;2023-05-29T00:37:33;4.37;;;2.73;;
10920;SDS011;5513;50.580;8.818;2023-05-29T00:40:02;5.40;;;3.30;;
10920;SDS011;5513;50.580;8.818;2023-05-29T00:42:31;5.97;;;3.13;;
10920;SDS011;5513;50.580;8.818;2023-05-29T00:45:00;5.93;;;3.20;;
10920;SDS011;5513;50.580;8.818;2023-05-29T00:47:28;5.23;;;3.27;;
10920;SDS011;5513;50.580;8.818;2023-05-29T00:49:59;6.17;;;3.40;;
10920;SDS011;5513;50.580;8.818;2023-05-29T00:52:29;3.97;;;2.97;;
10920;SDS011;5513;50.580;8.818;2023-05-29T00:54:57;5.40;;;3.10;;
10920;SDS011;5513;50.580;8.818;2023-05-29T00:57:27;6.57;;;3.30;;
10920;SDS011;5513;50.580;8.818;2023-05-29T00:59:56;4.73;;;3.10;;
10920;SDS011;5513;50.580;8.818;2023-05-29T01:02:26;4.73;;;2.87;;
10920;SDS011;5513;50.580;8.818;2023-05-29T01:04:57;4.67;;;3.13;;
10920;SDS011;5513;50.580;8.818;2023-05-29T01:07:27;4.13;;;2.90;;
10920;SDS011;5513;50.580;8.818;2023-05-29T01:09:58;5.37;;;3.03;;
10920;SDS011;5513;50.580;8.818;2023-05-29T01:12:30;4.20;;;3.03;;
10920;SDS011;5513;50.580;8.818;2023-05-29T01:15:10;5.27;;;3.30;;
10920;SDS011;5513;50.580;8.818;2023-05-29T01:17:49;5.63;;;3.30;;
10920;SDS011;5513;50.580;8.818;2023-05-29T01:20:32;5.03;;;3.00;;
10920;SDS011;5513;50.580;8.818;2023-05-29T01:26:11;5.67;;;3.70;;
10920;SDS011;5513;50.580;8.818;2023-05-29T01:28:54;5.77;;;3.17;;
10920;SDS011;5513;50.580;8.818;2023-05-29T01:31:27;6.47;;;3.47;;
10920;SDS011;5513;50.580;8.818;2023-05-29T01:33:58;4.00;;;3.30;;
10920;SDS011;5513;50.580;8.818;2023-05-29T01:36:28;5.47;;;3.20;;
10920;SDS011;5513;50.580;8.818;2023-05-29T01:38:59;5.70;;;3.37;;
10920;SDS011;5513;50.580;8.818;2023-05-29T01:41:28;5.33;;;3.40;;
10920;SDS011;5513;50.580;8.818;2023-05-29T01:43:58;6.37;;;3.43;;
10920;SDS011;5513;50.580;8.818;2023-05-29T01:46:27;6.57;;;3.33;;
10920;SDS011;5513;50.580;8.818;2023-05-29T01:48:56;4.90;;;3.40;;
10920;SDS011;5513;50.580;8.818;2023-05-29T01:51:25;8.60;;;3.50;;
10920;SDS011;5513;50.580;8.818;2023-05-29T01:53:53;8.03;;;3.50;;
10920;SDS011;5513;50.580;8.818;2023-05-29T01:56:21;4.27;;;3.57;;
10920;SDS011;5513;50.580;8.818;2023-05-29T01:58:50;5.00;;;3.40;;
10920;SDS011;5513;50.580;8.818;2023-05-29T02:01:20;4.93;;;3.47;;
10920;SDS011;5513;50.580;8.818;2023-05-29T02:03:49;4.90;;;3.60;;
10920;SDS011;5513;50.580;8.818;2023-05-29T02:06:18;6.00;;;3.77;;
10920;SDS011;5513;50.580;8.818;2023-05-29T02:08:47;5.87;;;3.77;;
10920;SDS011;5513;50.580;8.818;2023-05-29T02:11:16;7.53;;;3.70;;
10920;SDS011;5513;50.580;8.818;2023-05-29T02:13:44;6.10;;;3.53;;
10920;SDS011;5513;50.580;8.818;2023-05-29T02:16:12;6.20;;;3.50;;
10920;SDS011;5513;50.580;8.818;2023-05-29T02:18:42;6.83;;;3.90;;
10920;SDS011;5513;50.580;8.818;2023-05-29T02:21:10;7.27;;;3.70;;
10920;SDS011;5513;50.580;8.818;2023-05-29T02:23:39;6.17;;;3.77;;
10920;SDS011;5513;50.580;8.818;2023-05-29T02:26:07;8.23;;;3.97;;
10920;SDS011;5513;50.580;8.818;2023-05-29T02:28:36;8.73;;;4.00;;
10920;SDS011;5513;50.580;8.818;2023-05-29T02:31:04;5.93;;;3.63;;
10920;SDS011;5513;50.580;8.818;2023-05-29T02:33:33;5.63;;;4.03;;
10920;SDS011;5513;50.580;8.818;2023-05-29T02:36:03;8.40;;;4.20;;
10920;SDS011;5513;50.580;8.818;2023-05-29T02:38:38;8.83;;;4.40;;
10920;SDS011;5513;50.580;8.818;2023-05-29T02:41:07;6.93;;;4.33;;
10920;SDS011;5513;50.580;8.818;2023-05-29T02:43:35;9.00;;;4.73;;
10920;SDS011;5513;50.580;8.818;2023-05-29T02:46:04;8.17;;;4.20;;
10920;SDS011;5513;50.580;8.818;2023-05-29T02:48:32;5.93;;;4.40;;
10920;SDS011;5513;50.580;8.818;2023-05-29T02:51:02;7.33;;;4.50;;
10920;SDS011;5513;50.580;8.818;2023-05-29T02:53:31;8.33;;;4.47;;
10920;SDS011;5513;50.580;8.818;2023-05-29T02:55:59;6.50;;;4.27;;
10920;SDS011;5513;50.580;8.818;2023-05-29T02:58:28;7.93;;;4.00;;
10920;SDS011;5513;50.580;8.818;2023-05-29T03:00:56;8.47;;;4.70;;
10920;SDS011;5513;50.580;8.818;2023-05-29T03:03:26;7.43;;;4.57;;
10920;SDS011;5513;50.580;8.818;2023-05-29T03:05:55;9.83;;;4.60;;
10920;SDS011;5513;50.580;8.818;2023-05-29T03:08:24;8.07;;;4.83;;
10920;SDS011;5513;50.580;8.818;2023-05-29T03:10:54;8.10;;;4.60;;
10920;SDS011;5513;50.580;8.818;2023-05-29T03:13:23;8.43;;;4.60;;
10920;SDS011;5513;50.580;8.818;2023-05-29T03:15:51;8.00;;;4.50;;
10920;SDS011;5513;50.580;8.818;2023-05-29T03:18:23;7.40;;;4.53;;
10920;SDS011;5513;50.580;8.818;2023-05-29T03:20:51;7.93;;;4.90;;
10920;SDS011;5513;50.580;8.818;2023-05-29T03:23:21;8.87;;;4.30;;
10920;SDS011;5513;50.580;8.818;2023-05-29T03:25:54;9.27;;;4.60;;
10920;SDS011;5513;50.580;8.818;2023-05-29T03:28:22;10.23;;;5.23;;
10920;SDS011;5513;50.580;8.818;2023-05-29T03:30:50;8.27;;;5.33;;
10920;SDS011;5513;50.580;8.818;2023-05-29T03:33:19;8.63;;;5.00;;
10920;SDS011;5513;50.580;8.818;2023-05-29T03:35:48;9.63;;;4.93;;
10920;SDS011;5513;50.580;8.818;2023-05-29T03:38:16;8.93;;;5.00;;
10920;SDS011;5513;50.580;8.818;2023-05-29T03:40:44;8.77;;;4.73;;
10920;SDS011;5513;50.580;8.818;2023-05-29T03:43:16;10.27;;;5.03;;
10920;SDS011;5513;50.580;8.818;2023-05-29T03:45:44;7.13;;;4.47;;
10920;SDS011;5513;50.580;8.818;2023-05-29T03:48:15;7.23;;;4.63;;
10920;SDS011;5513;50.580;8.818;2023-05-29T03:50:44;9.00;;;5.07;;
10920;SDS011;5513;50.580;8.818;2023-05-29T03:53:12;11.13;;;5.27;;
10920;SDS011;5513;50.580;8.818;2023-05-29T03:55:41;8.77;;;4.70;;
10920;SDS011;5513;50.580;8.818;2023-05-29T03:58:09;8.97;;;5.40;;
10920;SDS011;5513;50.580;8.818;2023-05-29T04:00:40;10.20;;;5.00;;
10920;SDS011;5513;50.580;8.818;2023-05-29T04:03:08;7.93;;;5.07;;
10920;SDS011;5513;50.580;8.818;2023-05-29T04:05:37;8.70;;;4.83;;
10920;SDS011;5513;50.580;8.818;2023-05-29T04:08:06;8.57;;;4.87;;
10920;SDS011;5513;50.580;8.818;2023-05-29T04:10:41;9.77;;;4.70;;
10920;SDS011;5513;50.580;8.818;2023-05-29T04:13:10;10.97;;;5.20;;
10920;SDS011;5513;50.580;8.818;2023-05-29T04:15:40;9.83;;;4.60;;
10920;SDS011;5513;50.580;8.818;2023-05-29T04:18:08;12.40;;;5.20;;
10920;SDS011;5513;50.580;8.818;2023-05-29T04:20:37;10.00;;;4.60;;
10920;SDS011;5513;50.580;8.818;2023-05-29T04:23:05;9.47;;;5.10;;
10920;SDS011;5513;50.580;8.818;2023-05-29T04:25:35;8.43;;;4.83;;
10920;SDS011;5513;50.580;8.818;2023-05-29T04:28:03;8.17;;;4.87;;
10920;SDS011;5513;50.580;8.818;2023-05-29T04:30:32;10.83;;;5.47;;
10920;SDS011;5513;50.580;8.818;2023-05-29T04:33:02;7.77;;;4.80;;
10920;SDS011;5513;50.580;8.818;2023-05-29T04:35:31;9.60;;;5.27;;
10920;SDS011;5513;50.580;8.818;2023-05-29T04:37:59;9.70;;;5.10;;
10920;SDS011;5513;50.580;8.818;2023-05-29T04:40:27;8.00;;;5.33;;
10920;SDS011;5513;50.580;8.818;2023-05-29T04:42:58;10.03;;;5.23;;
10920;SDS011;5513;50.580;8.818;2023-05-29T04:45:29;10.23;;;5.30;;
10920;SDS011;5513;50.580;8.818;2023-05-29T04:47:57;12.20;;;5.10;;
10920;SDS011;5513;50.580;8.818;2023-05-29T04:50:28;11.20;;;5.20;;
10920;SDS011;5513;50.580;8.818;2023-05-29T04:52:57;8.80;;;4.73;;
10920;SDS011;5513;50.580;8.818;2023-05-29T04:55:25;9.77;;;5.87;;
10920;SDS011;5513;50.580;8.818;2023-05-29T04:57:54;7.83;;;5.00;;
10920;SDS011;5513;50.580;8.818;2023-05-29T05:00:22;10.33;;;4.93;;
10920;SDS011;5513;50.580;8.818;2023-05-29T05:02:51;9.47;;;5.20;;
10920;SDS011;5513;50.580;8.818;2023-05-29T05:05:20;8.83;;;5.10;;
10920;SDS011;5513;50.580;8.818;2023-05-29T05:07:50;8.17;;;5.00;;
10920;SDS011;5513;50.580;8.818;2023-05-29T05:10:18;12.13;;;5.27;;
10920;SDS011;5513;50.580;8.818;2023-05-29T05:12:46;9.27;;;5.27;;
10920;SDS011;5513;50.580;8.818;2023-05-29T05:15:14;11.37;;;5.53;;
10920;SDS011;5513;50.580;8.818;2023-05-29T05:17:43;9.27;;;5.20;;
10920;SDS011;5513;50.580;8.818;2023-05-29T05:20:13;9.20;;;5.33;;
10920;SDS011;5513;50.580;8.818;2023-05-29T05:22:41;10.13;;;5.23;;
10920;SDS011;5513;50.580;8.818;2023-05-29T05:25:11;11.50;;;5.10;;
10920;SDS011;5513;50.580;8.818;2023-05-29T05:27:40;11.10;;;5.33;;
10920;SDS011;5513;50.580;8.818;2023-05-29T05:30:09;8.83;;;4.67;;
10920;SDS011;5513;50.580;8.818;2023-05-29T05:32:38;10.77;;;5.47;;
10920;SDS011;5513;50.580;8.818;2023-05-29T05:35:07;10.40;;;4.87;;
10920;SDS011;5513;50.580;8.818;2023-05-29T05:37:37;9.43;;;5.13;;
10920;SDS011;5513;50.580;8.818;2023-05-29T05:40:06;10.13;;;5.13;;
10920;SDS011;5513;50.580;8.818;2023-05-29T05:42:37;8.10;;;4.50;;
10920;SDS011;5513;50.580;8.818;2023-05-29T05:45:06;11.07;;;4.90;;
10920;SDS011;5513;50.580;8.818;2023-05-29T05:47:35;11.77;;;5.33;;
10920;SDS011;5513;50.580;8.818;2023-05-29T05:50:04;9.00;;;4.93;;
10920;SDS011;5513;50.580;8.818;2023-05-29T05:52:34;9.67;;;4.80;;
10920;SDS011;5513;50.580;8.818;2023-05-29T05:55:02;8.50;;;4.80;;
10920;SDS011;5513;50.580;8.818;2023-05-29T05:57:31;9.67;;;4.80;;
10920;SDS011;5513;50.580;8.818;2023-05-29T06:00:02;8.73;;;4.27;;
10920;SDS011;5513;50.580;8.818;2023-05-29T06:02:32;9.50;;;4.90;;
10920;SDS011;5513;50.580;8.818;2023-05-29T06:05:01;8.90;;;5.07;;
10920;SDS011;5513;50.580;8.818;2023-05-29T06:07:30;9.80;;;4.60;;
10920;SDS011;5513;50.580;8.818;2023-05-29T06:09:58;9.50;;;5.13;;
10920;SDS011;5513;50.580;8.818;2023-05-29T06:12:29;9.50;;;4.93;;
10920;SDS011;5513;50.580;8.818;2023-05-29T06:14:58;6.50;;;4.53;;
10920;SDS011;5513;50.580;8.818;2023-05-29T06:17:28;9.20;;;4.80;;
10920;SDS011;5513;50.580;8.818;2023-05-29T06:19:56;10.77;;;4.83;;
10920;SDS011;5513;50.580;8.818;2023-05-29T06:22:24;8.33;;;4.30;;
10920;SDS011;5513;50.580;8.818;2023-05-29T06:24:53;12.40;;;4.57;;
10920;SDS011;5513;50.580;8.818;2023-05-29T06:27:21;7.23;;;4.57;;
10920;SDS011;5513;50.580;8.818;2023-05-29T06:29:52;10.93;;;4.77;;
10920;SDS011;5513;50.580;8.818;2023-05-29T06:32:20;11.93;;;5.07;;
10920;SDS011;5513;50.580;8.818;2023-05-29T06:34:49;10.10;;;4.90;;
10920;SDS011;5513;50.580;8.818;2023-05-29T06:37:18;8.43;;;4.33;;
10920;SDS011;5513;50.580;8.818;2023-05-29T06:39:46;9.83;;;4.93;;
10920;SDS011;5513;50.580;8.818;2023-05-29T06:42:14;9.43;;;4.70;;
10920;SDS011;5513;50.580;8.818;2023-05-29T06:44:44;8.40;;;4.67;;
10920;SDS011;5513;50.580;8.818;2023-05-29T06:47:14;9.50;;;4.37;;
10920;SDS011;5513;50.580;8.818;2023-05-29T06:49:42;7.07;;;4.30;;
10920;SDS011;5513;50.580;8.818;2023-05-29T06:52:12;8.33;;;4.40;;
10920;SDS011;5513;50.580;8.818;2023-05-29T06:54:40;10.70;;;4.73;;
10920;SDS011;5513;50.580;8.818;2023-05-29T06:57:08;13.73;;;4.67;;
10920;SDS011;5513;50.580;8.818;2023-05-29T06:59:37;11.83;;;4.77;;
10920;SDS011;5513;50.580;8.818;2023-05-29T07:02:07;10.70;;;4.93;;
10920;SDS011;5513;50.580;8.818;2023-05-29T07:04:35;6.53;;;3.70;;
10920;SDS011;5513;50.580;8.818;2023-05-29T07:07:03;9.43;;;4.63;;
10920;SDS011;5513;50.580;8.818;2023-05-29T07:09:34;7.90;;;4.80;;
10920;SDS011;5513;50.580;8.818;2023-05-29T07:12:04;9.90;;;4.43;;
10920;SDS011;5513;50.580;8.818;2023-05-29T07:14:33;10.93;;;4.40;;
10920;SDS011;5513;50.580;8.818;2023-05-29T07:17:01;7.07;;;4.10;;
10920;SDS011;5513;50.580;8.818;2023-05-29T07:19:29;9.87;;;4.60;;
10920;SDS011;5513;50.580;8.818;2023-05-29T07:21:59;9.67;;;5.03;;
10920;SDS011;5513;50.580;8.818;2023-05-29T07:24:27;8.90;;;4.50;;
10920;SDS011;5513;50.580;8.818;2023-05-29T07:26:57;9.43;;;3.93;;
10920;SDS011;5513;50.580;8.818;2023-05-29T07:29:25;10.70;;;4.53;;
10920;SDS011;5513;50.580;8.818;2023-05-29T07:31:53;9.87;;;4.20;;
10920;SDS011;5513;50.580;8.818;2023-05-29T07:34:22;6.77;;;4.27;;
10920;SDS011;5513;50.580;8.818;2023-05-29T07:36:56;9.03;;;4.37;;
10920;SDS011;5513;50.580;8.818;2023-05-29T07:39:27;7.87;;;4.53;;
10920;SDS011;5513;50.580;8.818;2023-05-29T07:41:57;8.53;;;4.30;;
10920;SDS011;5513;50.580;8.818;2023-05-29T07:44:25;7.83;;;4.50;;
10920;SDS011;5513;50.580;8.818;2023-05-29T07:46:54;9.60;;;4.53;;
10920;SDS011;5513;50.580;8.818;2023-05-29T07:49:23;10.30;;;4.53;;
10920;SDS011;5513;50.580;8.818;2023-05-29T07:51:51;8.87;;;4.17;;
10920;SDS011;5513;50.580;8.818;2023-05-29T07:54:20;7.37;;;4.20;;
10920;SDS011;5513;50.580;8.818;2023-05-29T07:56:48;7.83;;;4.30;;
10920;SDS011;5513;50.580;8.818;2023-05-29T07:59:19;7.57;;;3.97;;
10920;SDS011;5513;50.580;8.818;2023-05-29T08:01:47;11.73;;;4.33;;
10920;SDS011;5513;50.580;8.818;2023-05-29T08:04:16;8.10;;;5.10;;
10920;SDS011;5513;50.580;8.818;2023-05-29T08:06:44;7.50;;;4.50;;
10920;SDS011;5513;50.580;8.818;2023-05-29T08:09:12;9.10;;;4.90;;
10920;SDS011;5513;50.580;8.818;2023-05-29T08:11:41;6.50;;;4.13;;
10920;SDS011;5513;50.580;8.818;2023-05-29T08:14:11;11.50;;;4.07;;
10920;SDS011;5513;50.580;8.818;2023-05-29T08:16:41;6.07;;;4.00;;
10920;SDS011;5513;50.580;8.818;2023-05-29T08:19:09;7.83;;;4.23;;
10920;SDS011;5513;50.580;8.818;2023-05-29T08:21:38;7.87;;;4.03;;
10920;SDS011;5513;50.580;8.818;2023-05-29T08:24:07;8.52;;;5.10;;
10920;SDS011;5513;50.580;8.818;2023-05-29T08:26:35;6.30;;;4.03;;
10920;SDS011;5513;50.580;8.818;2023-05-29T08:29:04;6.38;;;3.90;;
10920;SDS011;5513;50.580;8.818;2023-05-29T08:31:34;6.90;;;3.90;;
10920;SDS011;5513;50.580;8.818;2023-05-29T08:34:04;6.80;;;3.80;;
10920;SDS011;5513;50.580;8.818;2023-05-29T08:36:33;7.78;;;4.18;;
10920;SDS011;5513;50.580;8.818;2023-05-29T08:39:01;7.82;;;4.35;;
10920;SDS011;5513;50.580;8.818;2023-05-29T08:41:32;7.88;;;3.97;;
10920;SDS011;5513;50.580;8.818;2023-05-29T08:44:09;8.20;;;4.22;;
10920;SDS011;5513;50.580;8.818;2023-05-29T08:46:41;9.98;;;4.47;;
10920;SDS011;5513;50.580;8.818;2023-05-29T08:49:14;6.68;;;4.10;;
10920;SDS011;5513;50.580;8.818;2023-05-29T08:51:47;8.88;;;3.88;;
10920;SDS011;5513;50.580;8.818;2023-05-29T08:54:17;7.43;;;3.78;;
10920;SDS011;5513;50.580;8.818;2023-05-29T08:56:46;7.50;;;3.92;;
10920;SDS011;5513;50.580;8.818;2023-05-29T08:59:15;8.93;;;4.35;;
10920;SDS011;5513;50.580;8.818;2023-05-29T09:01:44;7.20;;;3.63;;
10920;SDS011;5513;50.580;8.818;2023-05-29T09:04:14;11.63;;;3.97;;
10920;SDS011;5513;50.580;8.818;2023-05-29T09:06:43;7.28;;;3.97;;
10920;SDS011;5513;50.580;8.818;2023-05-29T09:09:15;7.50;;;4.10;;
10920;SDS011;5513;50.580;8.818;2023-05-29T09:11:44;8.25;;;4.05;;
10920;SDS011;5513;50.580;8.818;2023-05-29T09:17:06;5.68;;;3.67;;
10920;SDS011;5513;50.580;8.818;2023-05-29T09:19:38;7.13;;;4.07;;
10920;SDS011;5513;50.580;8.818;2023-05-29T09:22:09;8.32;;;4.22;;
10920;SDS011;5513;50.580;8.818;2023-05-29T09:24:41;8.95;;;4.28;;
10920;SDS011;5513;50.580;8.818;2023-05-29T09:27:14;8.90;;;3.53;;
10920;SDS011;5513;50.580;8.818;2023-05-29T09:29:43;8.93;;;3.85;;
10920;SDS011;5513;50.580;8.818;2023-05-29T09:32:14;9.23;;;4.03;;
10920;SDS011;5513;50.580;8.818;2023-05-29T09:34:47;6.20;;;3.65;;
10920;SDS011;5513;50.580;8.818;2023-05-29T09:37:15;10.32;;;4.10;;
10920;SDS011;5513;50.580;8.818;2023-05-29T09:39:48;5.70;;;3.60;;
10920;SDS011;5513;50.580;8.818;2023-05-29T09:42:17;6.07;;;3.58;;
10920;SDS011;5513;50.580;8.818;2023-05-29T09:44:48;7.53;;;3.70;;
10920;SDS011;5513;50.580;8.818;2023-05-29T09:47:19;7.72;;;3.63;;
10920;SDS011;5513;50.580;8.818;2023-05-29T09:49:50;5.70;;;3.70;;
10920;SDS011;5513;50.580;8.818;2023-05-29T09:52:20;6.82;;;4.00;;
10920;SDS011;5513;50.580;8.818;2023-05-29T09:54:49;4.45;;;3.40;;
10920;SDS011;5513;50.580;8.818;2023-05-29T09:57:19;7.13;;;3.67;;
10920;SDS011;5513;50.580;8.818;2023-05-29T09:59:50;6.25;;;3.47;;
10920;SDS011;5513;50.580;8.818;2023-05-29T10:02:20;7.07;;;3.50;;
10920;SDS011;5513;50.580;8.818;2023-05-29T10:04:52;7.78;;;3.70;;
10920;SDS011;5513;50.580;8.818;2023-05-29T10:07:22;6.03;;;3.70;;
10920;SDS011;5513;50.580;8.818;2023-05-29T10:09:58;6.60;;;3.83;;
10920;SDS011;5513;50.580;8.818;2023-05-29T10:12:28;6.40;;;3.50;;
10920;SDS011;5513;50.580;8.818;2023-05-29T10:14:59;6.45;;;3.90;;
10920;SDS011;5513;50.580;8.818;2023-05-29T10:17:32;5.25;;;3.75;;
10920;SDS011;5513;50.580;8.818;2023-05-29T10:20:07;7.68;;;3.65;;
10920;SDS011;5513;50.580;8.818;2023-05-29T10:22:44;8.57;;;3.90;;
10920;SDS011;5513;50.580;8.818;2023-05-29T10:25:14;6.43;;;3.72;;
10920;SDS011;5513;50.580;8.818;2023-05-29T10:27:46;6.97;;;3.53;;
10920;SDS011;5513;50.580;8.818;2023-05-29T10:30:22;5.38;;;4.30;;
10920;SDS011;5513;50.580;8.818;2023-05-29T10:32:58;6.28;;;3.92;;
10920;SDS011;5513;50.580;8.818;2023-05-29T10:35:40;7.70;;;4.25;;
10920;SDS011;5513;50.580;8.818;2023-05-29T10:38:13;9.43;;;3.92;;
10920;SDS011;5513;50.580;8.818;2023-05-29T10:40:43;10.15;;;5.47;;
10920;SDS011;5513;50.580;8.818;2023-05-29T10:45:59;7.50;;;4.38;;
10920;SDS011;5513;50.580;8.818;2023-05-29T10:48:40;6.80;;;3.58;;
10920;SDS011;5513;50.580;8.818;2023-05-29T10:51:28;6.95;;;3.92;;
10920;SDS011;5513;50.580;8.818;2023-05-29T10:53:57;9.63;;;4.50;;
10920;SDS011;5513;50.580;8.818;2023-05-29T10:56:28;7.57;;;3.53;;
10920;SDS011;5513;50.580;8.818;2023-05-29T10:58:58;6.65;;;3.80;;
10920;SDS011;5513;50.580;8.818;2023-05-29T11:01:29;8.45;;;4.20;;
10920;SDS011;5513;50.580;8.818;2023-05-29T11:07:00;5.68;;;3.92;;
10920;SDS011;5513;50.580;8.818;2023-05-29T11:09:33;6.53;;;3.60;;
10920;SDS011;5513;50.580;8.818;2023-05-29T11:12:13;5.70;;;3.72;;
10920;SDS011;5513;50.580;8.818;2023-05-29T11:14:55;6.70;;;3.42;;
10920;SDS011;5513;50.580;8.818;2023-05-29T11:17:32;8.02;;;3.67;;
10920;SDS011;5513;50.580;8.818;2023-05-29T11:20:16;5.50;;;3.38;;
10920;SDS011;5513;50.580;8.818;2023-05-29T11:22:56;5.85;;;3.42;;
10920;SDS011;5513;50.580;8.818;2023-05-29T11:25:30;6.22;;;3.53;;
10920;SDS011;5513;50.580;8.818;2023-05-29T11:28:01;5.43;;;3.20;;
10920;SDS011;5513;50.580;8.818;2023-05-29T11:30:41;6.00;;;3.47;;
10920;SDS011;5513;50.580;8.818;2023-05-29T11:33:16;5.40;;;3.70;;
10920;SDS011;5513;50.580;8.818;2023-05-29T11:35:55;4.95;;;3.45;;
10920;SDS011;5513;50.580;8.818;2023-05-29T11:38:36;6.00;;;3.22;;
10920;SDS011;5513;50.580;8.818;2023-05-29T11:41:05;7.55;;;3.38;;
10920;SDS011;5513;50.580;8.818;2023-05-29T11:43:33;4.25;;;3.20;;
10920;SDS011;5513;50.580;8.818;2023-05-29T11:46:13;5.90;;;3.30;;
10920;SDS011;5513;50.580;8.818;2023-05-29T11:48:46;6.55;;;3.20;;
10920;SDS011;5513;50.580;8.818;2023-05-29T11:51:14;5.25;;;3.50;;
10920;SDS011;5513;50.580;8.818;2023-05-29T11:53:46;4.53;;;3.25;;
10920;SDS011;5513;50.580;8.818;2023-05-29T11:56:15;5.15;;;3.42;;
10920;SDS011;5513;50.580;8.818;2023-05-29T11:58:43;5.20;;;3.50;;
10920;SDS011;5513;50.580;8.818;2023-05-29T12:01:12;5.45;;;3.40;;
10920;SDS011;5513;50.580;8.818;2023-05-29T12:03:47;5.90;;;3.50;;
10920;SDS011;5513;50.580;8.818;2023-05-29T12:06:15;6.45;;;3.22;;
10920;SDS011;5513;50.580;8.818;2023-05-29T12:08:46;6.50;;;3.40;;
10920;SDS011;5513;50.580;8.818;2023-05-29T12:11:22;6.15;;;3.38;;
10920;SDS011;5513;50.580;8.818;2023-05-29T12:13:55;5.20;;;3.28;;
10920;SDS011;5513;50.580;8.818;2023-05-29T12:16:23;5.63;;;3.30;;
10920;SDS011;5513;50.580;8.818;2023-05-29T12:18:52;4.20;;;3.40;;
10920;SDS011;5513;50.580;8.818;2023-05-29T12:21:21;5.63;;;3.22;;
10920;SDS011;5513;50.580;8.818;2023-05-29T12:23:52;6.82;;;3.40;;
10920;SDS011;5513;50.580;8.818;2023-05-29T12:26:39;6.93;;;3.42;;
10920;SDS011;5513;50.580;8.818;2023-05-29T12:29:07;8.05;;;3.88;;
10920;SDS011;5513;50.580;8.818;2023-05-29T12:31:36;6.50;;;3.60;;
10920;SDS011;5513;50.580;8.818;2023-05-29T12:34:07;6.15;;;3.55;;
10920;SDS011;5513;50.580;8.818;2023-05-29T12:36:39;5.97;;;3.20;;
10920;SDS011;5513;50.580;8.818;2023-05-29T12:39:09;4.35;;;2.97;;
10920;SDS011;5513;50.580;8.818;2023-05-29T12:41:38;5.78;;;3.40;;
10920;SDS011;5513;50.580;8.818;2023-05-29T12:44:06;6.15;;;3.45;;
10920;SDS011;5513;50.580;8.818;2023-05-29T12:46:35;6.07;;;3.75;;
10920;SDS011;5513;50.580;8.818;2023-05-29T12:49:16;5.10;;;3.50;;
10920;SDS011;5513;50.580;8.818;2023-05-29T12:51:48;4.57;;;3.50;;
10920;SDS011;5513;50.580;8.818;2023-05-29T12:54:21;7.57;;;3.40;;
10920;SDS011;5513;50.580;8.818;2023-05-29T12:56:50;5.43;;;3.72;;
10920;SDS011;5513;50.580;8.818;2023-05-29T12:59:18;5.80;;;3.70;;
10920;SDS011;5513;50.580;8.818;2023-05-29T13:01:46;6.10;;;3.13;;
10920;SDS011;5513;50.580;8.818;2023-05-29T13:04:15;6.57;;;3.33;;
10920;SDS011;5513;50.580;8.818;2023-05-29T13:06:43;4.57;;;2.85;;
10920;SDS011;5513;50.580;8.818;2023-05-29T13:09:12;5.75;;;3.40;;
10920;SDS011;5513;50.580;8.818;2023-05-29T13:11:43;7.05;;;3.97;;
10920;SDS011;5513;50.580;8.818;2023-05-29T13:14:11;6.47;;;4.25;;
10920;SDS011;5513;50.580;8.818;2023-05-29T13:16:39;5.40;;;3.40;;
10920;SDS011;5513;50.580;8.818;2023-05-29T13:19:08;4.68;;;3.35;;
10920;SDS011;5513;50.580;8.818;2023-05-29T13:21:38;6.57;;;3.55;;
10920;SDS011;5513;50.580;8.818;2023-05-29T13:24:16;6.65;;;3.55;;
10920;SDS011;5513;50.580;8.818;2023-05-29T13:26:45;5.75;;;3.75;;
10920;SDS011;5513;50.580;8.818;2023-05-29T13:29:14;7.53;;;3.83;;
10920;SDS011;5513;50.580;8.818;2023-05-29T13:31:43;5.68;;;4.03;;
10920;SDS011;5513;50.580;8.818;2023-05-29T13:34:11;4.93;;;3.45;;
10920;SDS011;5513;50.580;8.818;2023-05-29T13:36:39;6.13;;;3.70;;
10920;SDS011;5513;50.580;8.818;2023-05-29T13:39:07;5.38;;;3.65;;
10920;SDS011;5513;50.580;8.818;2023-05-29T13:41:36;6.55;;;3.33;;
10920;SDS011;5513;50.580;8.818;2023-05-29T13:44:06;4.28;;;3.28;;
10920;SDS011;5513;50.580;8.818;2023-05-29T13:46:34;5.22;;;3.45;;
10920;SDS011;5513;50.580;8.818;2023-05-29T13:49:03;5.45;;;3.40;;
10920;SDS011;5513;50.580;8.818;2023-05-29T13:51:31;5.00;;;2.97;;
10920;SDS011;5513;50.580;8.818;2023-05-29T13:54:00;5.72;;;3.10;;
10920;SDS011;5513;50.580;8.818;2023-05-29T13:56:28;6.18;;;3.13;;
10920;SDS011;5513;50.580;8.818;2023-05-29T13:58:57;4.72;;;2.75;;
10920;SDS011;5513;50.580;8.818;2023-05-29T14:01:33;5.43;;;3.17;;
10920;SDS011;5513;50.580;8.818;2023-05-29T14:04:01;5.40;;;3.55;;
10920;SDS011;5513;50.580;8.818;2023-05-29T14:06:30;3.42;;;2.80;;
10920;SDS011;5513;50.580;8.818;2023-05-29T14:08:58;5.38;;;3.78;;
10920;SDS011;5513;50.580;8.818;2023-05-29T14:11:27;4.95;;;2.83;;
10920;SDS011;5513;50.580;8.818;2023-05-29T14:13:56;4.20;;;3.10;;
10920;SDS011;5513;50.580;8.818;2023-05-29T14:16:24;5.53;;;3.20;;
10920;SDS011;5513;50.580;8.818;2023-05-29T14:18:55;4.63;;;3.10;;
10920;SDS011;5513;50.580;8.818;2023-05-29T14:21:23;6.30;;;3.03;;
10920;SDS011;5513;50.580;8.818;2023-05-29T14:23:52;5.90;;;3.10;;
10920;SDS011;5513;50.580;8.818;2023-05-29T14:26:20;5.07;;;3.17;;
10920;SDS011;5513;50.580;8.818;2023-05-29T14:28:49;6.10;;;3.30;;
10920;SDS011;5513;50.580;8.818;2023-05-29T14:31:27;6.30;;;3.50;;
10920;SDS011;5513;50.580;8.818;2023-05-29T14:33:58;4.97;;;3.67;;
10920;SDS011;5513;50.580;8.818;2023-05-29T14:36:26;6.25;;;3.63;;
10920;SDS011;5513;50.580;8.818;2023-05-29T14:38:56;6.13;;;3.08;;
10920;SDS011;5513;50.580;8.818;2023-05-29T14:41:25;6.13;;;3.70;;
10920;SDS011;5513;50.580;8.818;2023-05-29T14:43:53;6.32;;;3.40;;
10920;SDS011;5513;50.580;8.818;2023-05-29T14:46:26;7.38;;;4.90;;
10920;SDS011;5513;50.580;8.818;2023-05-29T14:49:00;4.53;;;3.25;;
10920;SDS011;5513;50.580;8.818;2023-05-29T14:51:29;5.50;;;3.47;;
10920;SDS011;5513;50.580;8.818;2023-05-29T14:53:57;6.78;;;3.45;;
10920;SDS011;5513;50.580;8.818;2023-05-29T14:56:26;6.32;;;3.40;;
10920;SDS011;5513;50.580;8.818;2023-05-29T14:58:54;7.40;;;3.45;;
10920;SDS011;5513;50.580;8.818;2023-05-29T15:01:23;6.05;;;3.00;;
10920;SDS011;5513;50.580;8.818;2023-05-29T15:03:52;4.03;;;3.15;;
10920;SDS011;5513;50.580;8.818;2023-05-29T15:06:21;7.32;;;3.33;;
10920;SDS011;5513;50.580;8.818;2023-05-29T15:08:50;6.43;;;3.25;;
10920;SDS011;5513;50.580;8.818;2023-05-29T15:11:22;6.10;;;3.75;;
10920;SDS011;5513;50.580;8.818;2023-05-29T15:13:51;6.95;;;3.92;;
10920;SDS011;5513;50.580;8.818;2023-05-29T15:16:20;6.63;;;4.22;;
10920;SDS011;5513;50.580;8.818;2023-05-29T15:18:48;5.75;;;3.78;;
10920;SDS011;5513;50.580;8.818;2023-05-29T15:21:16;6.22;;;3.63;;
10920;SDS011;5513;50.580;8.818;2023-05-29T15:23:46;6.78;;;3.28;;
10920;SDS011;5513;50.580;8.818;2023-05-29T15:26:15;6.40;;;3.40;;
10920;SDS011;5513;50.580;8.818;2023-05-29T15:28:43;7.63;;;3.75;;